Date,TemperatureHighF,TemperatureAvgF,TemperatureLowF,DewpointHighF,DewpointAvgF,DewpointLowF,HumidityHigh,HumidityAvg,HumidityLow,PressureMaxIn,PressureMinIn,WindSpeedMaxMPH,WindSpeedAvgMPH,GustSpeedMaxMPH,PrecipitationSumIn
2013-1-8,51.4,50.9,50.4,42.0,41.6,41.3,72,70,69,30.04,30.02,1,0,2,0.00
2013-1-9,55.4,50.1,45.3,47.8,41.2,32.8,84,72,58,30.03,29.88,6,0,7,0.00
2013-1-10,55.8,47.3,42.3,35.1,31.5,26.4,69,55,39,30.08,29.96,11,1,11,0.00
2013-1-11,54.5,47.3,42.3,37.5,31.6,23.6,70,55,44,30.14,30.00,11,1,11,0.00
2013-1-12,51.3,45.8,40.6,35.3,30.0,23.1,71,55,34,30.13,30.02,4,0,4,0.00
2013-1-13,50.9,44.0,36.9,31.0,25.5,-99.9,65,50,19,30.15,30.06,13,1,13,0.00
2013-1-14,52.9,47.2,40.6,27.4,5.8,-99.9,49,31,19,30.28,30.10,10,1,10,0.00
2013-1-15,54.5,47.0,41.0,34.8,29.2,24.3,71,51,31,30.36,30.27,12,2,12,0.00
2013-1-16,57.7,48.2,40.1,35.7,30.7,27.3,65,52,40,30.32,30.13,11,2,11,0.00
2013-1-17,63.5,52.3,42.6,36.9,32.0,27.5,69,48,32,30.15,30.03,9,1,9,0.00
2013-1-18,65.3,55.1,47.3,34.9,30.3,23.1,55,40,25,30.12,30.02,13,1,13,0.00
2013-1-19,64.2,55.4,49.5,33.0,27.7,20.4,46,35,27,30.14,30.04,8,1,8,0.00
2013-1-20,66.6,56.6,49.8,31.1,25.8,20.1,45,31,21,30.11,30.01,7,1,7,0.00
2013-1-21,66.4,54.8,46.2,35.5,32.1,26.0,58,43,29,30.06,29.96,9,1,9,0.00
2013-1-22,62.8,55.2,49.1,37.7,35.6,33.1,56,48,36,30.00,29.88,11,1,11,0.00
2013-1-23,55.9,53.5,50.7,47.8,42.1,37.2,88,67,52,29.98,29.84,6,0,6,0.24
2013-1-24,60.3,54.8,50.7,50.9,48.6,47.4,90,80,65,30.08,29.95,7,1,12,0.00
2013-1-25,67.3,58.6,53.6,52.8,49.7,47.8,86,73,55,30.08,29.93,6,0,7,0.00
2013-1-26,62.2,54.3,49.5,49.5,42.4,34.8,86,66,39,29.97,29.88,10,1,10,0.00
2013-1-27,57.6,50.8,44.2,38.4,34.0,30.5,65,53,41,30.07,29.95,13,1,13,0.00
2013-1-28,59.7,52.1,46.6,40.6,36.5,31.6,69,56,45,30.18,30.05,9,1,9,0.00
2013-1-29,59.0,52.7,47.3,42.5,39.1,35.5,68,60,51,30.25,30.15,10,0,10,0.00
2013-1-30,66.4,55.2,48.9,45.5,42.0,38.5,80,62,43,30.23,30.15,6,0,6,0.00
2013-1-31,65.7,56.3,49.1,43.9,41.5,40.1,73,59,42,30.18,30.06,11,2,11,0.00
2013-2-1,68.4,57.7,51.4,43.7,41.7,39.4,72,56,39,30.11,30.00,10,2,11,0.00
2013-2-2,59.2,53.2,50.5,47.2,45.1,42.7,82,74,61,30.19,30.10,9,0,9,0.00
2013-2-3,59.4,53.3,48.7,45.1,43.0,39.7,81,69,52,30.14,30.03,11,1,11,0.00
2013-2-4,55.0,50.9,48.6,46.0,44.6,43.4,86,79,69,30.07,29.96,6,0,6,0.00
2013-2-5,60.3,52.3,46.9,45.0,42.2,38.8,81,69,54,30.05,29.95,7,1,7,0.00
2013-2-6,60.6,52.0,45.9,44.1,41.0,37.9,79,67,50,30.09,30.01,7,1,9,0.00
2013-2-7,56.3,50.7,45.0,49.0,41.9,36.6,89,73,51,30.05,29.88,10,2,10,0.22
2013-2-8,55.8,48.6,41.2,43.0,36.9,26.1,90,66,40,29.91,29.83,12,1,12,0.06
2013-2-9,59.0,51.4,45.7,37.7,27.7,20.8,58,40,28,29.98,29.88,6,0,6,0.00
2013-2-10,60.3,50.9,44.2,40.0,36.1,30.8,75,58,41,30.01,29.91,6,0,6,0.00
2013-2-11,67.1,54.0,49.5,43.4,32.2,-99.9,78,49,19,30.12,29.96,10,2,10,0.00
2013-2-12,64.0,54.1,46.8,45.0,41.2,34.8,82,64,34,30.25,30.12,8,1,8,0.00
2013-2-13,61.9,52.3,46.4,45.9,41.8,38.0,82,68,48,30.24,30.10,7,0,7,0.00
2013-2-14,68.7,56.8,47.7,46.7,42.8,39.7,87,62,37,30.14,30.04,4,0,4,0.00
2013-2-15,73.4,63.3,55.0,41.5,36.8,33.3,58,39,24,30.16,30.08,12,2,12,0.00
2013-2-16,71.2,60.7,52.7,43.1,40.3,37.2,67,48,33,30.12,29.94,8,1,8,0.00
2013-2-17,64.6,55.1,48.6,45.3,40.9,36.2,81,60,40,29.95,29.85,7,1,10,0.00
2013-2-18,55.9,50.9,47.1,41.9,38.2,34.3,79,62,49,29.92,29.85,12,1,12,0.00
2013-2-19,50.4,46.1,41.5,43.7,37.2,31.4,87,72,58,29.86,29.65,10,1,11,0.31
2013-2-20,60.3,53.1,39.6,38.8,35.1,30.6,75,52,36,29.95,29.78,7,1,7,0.00
2013-2-21,62.2,56.0,44.1,38.4,33.9,27.9,69,45,29,30.06,29.98,11,2,12,0.00
2013-2-22,63.7,55.5,46.8,44.2,40.0,34.6,79,57,36,30.15,30.06,9,1,9,0.00
2013-2-23,63.5,54.7,47.7,45.4,33.8,25.2,82,48,26,30.15,30.05,11,2,11,0.00
2013-2-24,65.8,55.8,48.4,41.0,24.1,-99.9,70,38,19,30.14,30.05,14,2,14,0.00
2013-2-25,61.5,56.2,46.8,44.7,41.2,37.4,79,58,44,30.15,30.05,6,0,6,0.00
2013-2-26,67.1,56.6,45.3,38.5,30.7,-99.9,66,45,19,30.11,30.02,11,1,12,0.00
2013-2-27,65.1,55.8,48.0,44.2,39.6,30.0,72,55,32,30.25,30.09,7,0,7,0.00
2013-2-28,68.4,59.0,51.8,49.1,46.6,41.1,81,64,49,30.34,30.25,10,1,10,0.00
2013-3-1,73.8,64.4,53.4,53.8,46.2,43.4,85,53,35,30.28,30.12,7,1,8,0.00
2013-3-2,70.0,60.1,52.5,48.7,45.8,43.6,77,60,43,30.13,29.96,8,1,11,0.00
2013-3-3,65.1,55.1,49.1,49.6,44.7,42.2,83,69,49,29.98,29.91,17,4,17,0.00
2013-3-4,56.8,51.0,46.0,43.9,41.1,38.0,83,69,57,30.04,29.94,13,2,14,0.00
2013-3-5,55.8,50.7,45.3,45.9,39.6,36.7,83,66,53,29.96,29.72,18,6,19,0.06
2013-3-6,56.7,52.4,49.1,48.4,42.1,38.5,87,69,52,29.96,29.72,22,3,23,0.04
2013-3-7,57.7,50.9,47.1,43.9,41.5,37.0,83,71,48,29.89,29.75,10,0,10,0.02
2013-3-8,64.4,53.6,47.7,43.6,39.5,35.5,78,60,43,29.93,29.72,15,1,15,0.00
2013-3-9,68.2,56.8,46.4,44.2,39.9,37.5,77,55,36,30.19,29.93,7,0,7,0.00
2013-3-10,68.7,56.9,48.9,46.7,40.6,31.9,77,56,32,30.24,30.13,9,1,12,0.00
2013-3-11,71.1,57.7,48.9,46.4,41.7,34.0,79,57,27,30.15,29.99,10,1,10,0.00
2013-3-12,68.9,58.5,50.4,48.6,46.2,43.2,82,65,46,30.05,29.96,4,0,4,0.00
2013-3-13,75.7,60.9,50.4,51.2,47.4,45.2,86,64,38,30.05,29.95,7,0,7,0.00
2013-3-14,65.5,57.7,51.8,49.0,45.9,42.9,81,66,51,30.05,29.97,10,0,10,0.00
2013-3-15,68.4,57.7,50.9,47.3,45.0,41.9,80,64,39,30.02,29.93,6,0,6,0.00
2013-3-16,70.7,60.8,50.4,50.9,44.3,35.5,86,57,36,30.01,29.91,6,1,9,0.00
2013-3-17,68.4,59.6,51.4,44.9,39.4,35.9,62,48,36,30.04,29.93,23,1,23,0.00
2013-3-18,67.5,57.2,49.3,46.9,41.7,35.1,78,57,42,30.01,29.92,12,1,12,0.00
2013-3-19,66.7,55.5,50.2,45.8,42.9,38.9,81,64,41,30.02,29.94,10,1,10,0.04
2013-3-20,57.6,53.8,51.3,52.0,49.7,45.8,92,86,67,30.03,29.96,13,2,13,0.45
2013-3-21,65.3,55.9,44.2,49.0,42.0,38.2,92,62,39,30.02,29.90,9,1,10,0.00
2013-3-22,71.1,58.1,47.8,42.7,28.8,-99.9,71,46,19,30.01,29.91,8,0,8,0.00
2013-3-23,70.0,58.9,50.9,38.7,27.8,-99.9,59,38,19,30.03,29.93,8,1,11,0.00
2013-3-24,68.4,57.8,49.3,46.1,41.1,35.2,75,55,37,29.99,29.86,12,1,12,0.00
2013-3-25,61.5,53.6,47.1,43.6,40.8,38.8,77,63,47,29.92,29.82,11,2,12,0.00
2013-3-26,63.5,54.9,48.4,45.4,41.8,40.0,76,62,47,29.90,29.82,11,1,14,0.00
2013-3-27,61.9,55.1,51.3,51.2,47.9,40.8,91,77,61,29.91,29.84,8,1,8,0.02
2013-3-28,69.1,59.4,53.4,55.0,50.0,46.8,91,72,54,29.98,29.90,8,2,8,0.02
2013-3-29,77.0,61.8,52.0,54.8,47.9,43.8,89,63,36,29.97,29.90,16,1,16,0.00
2013-3-30,66.6,57.1,52.7,51.8,48.3,44.8,87,73,51,29.97,29.86,15,2,15,0.00
2013-4-1,63.9,59.3,55.2,50.1,45.6,44.3,68,61,55,30.04,30.00,11,4,11,0.00
2013-4-2,62.1,59.8,57.6,48.1,47.8,47.4,69,64,60,30.02,29.98,3,3,3,0.00
2013-4-3,67.5,63.5,56.1,49.1,47.6,46.1,69,57,47,29.95,29.89,10,2,10,0.00
2013-4-4,55.4,54.9,54.1,54.2,53.1,52.2,96,94,89,30.00,29.92,6,2,6,0.55
2013-4-5,62.2,56.6,53.8,55.0,49.1,48.5,96,76,65,30.07,30.01,8,1,8,0.02
2013-4-6,60.4,56.8,54.0,54.0,51.5,48.9,92,83,73,30.10,30.01,8,2,9,0.08
2013-4-7,63.7,57.5,52.7,55.4,45.4,43.2,84,64,56,30.01,29.79,11,1,11,0.02
2013-4-9,79.9,69.3,64.0,38.6,22.8,-99.9,38,28,19,29.99,29.92,14,2,14,0.00
2013-4-10,85.1,70.2,60.4,47.9,42.2,33.5,52,37,21,30.07,29.92,10,0,10,0.00
2013-4-11,77.5,63.5,54.5,46.3,43.3,39.7,65,49,29,29.95,29.73,7,1,7,0.00
2013-4-12,70.5,63.7,53.2,46.5,42.8,37.7,69,48,30,29.79,29.71,13,1,13,0.00
2013-4-13,71.8,63.0,54.0,46.1,42.5,37.8,70,48,37,29.79,29.71,6,0,6,0.00
2013-4-14,72.3,62.8,52.2,42.3,38.2,29.3,68,43,22,29.83,29.75,7,1,10,0.00
2013-4-17,69.3,64.7,61.3,30.3,3.0,-99.9,31,24,19,30.11,30.06,9,1,9,0.00
2013-4-18,71.1,62.3,57.9,39.5,32.1,-99.9,50,36,19,30.11,30.07,6,0,6,0.00
2013-4-19,72.9,66.2,57.2,46.3,44.0,39.3,51,45,33,30.09,29.95,8,1,8,0.00
2013-4-20,79.9,68.6,57.9,43.1,37.0,-99.9,52,34,19,29.99,29.86,13,2,13,0.00
2013-4-21,82.4,71.0,55.6,44.7,39.9,35.7,60,34,21,29.93,29.81,8,1,8,0.00
2013-4-22,86.9,67.6,58.8,45.6,40.1,-99.9,58,42,19,29.85,29.74,9,1,9,0.00
2013-4-23,96.4,60.4,50.7,46.8,40.1,-99.9,76,55,19,29.83,29.75,15,3,15,0.00
2013-4-28,80.2,70.0,55.0,49.2,47.3,44.2,77,46,29,29.94,29.77,3,0,3,0.00
2013-4-29,93.6,70.4,57.0,53.0,47.0,43.1,74,47,19,29.80,29.66,7,-6,7,0.00
2013-4-30,85.5,67.2,55.8,49.7,36.0,-99.9,71,44,19,29.75,29.68,11,1,11,0.00
2013-5-1,98.2,72.2,60.6,42.0,-38.2,-99.9,49,27,19,29.98,29.73,16,3,16,0.00
2013-5-2,60.6,59.2,58.3,42.0,41.1,40.1,54,51,49,30.01,29.97,1,0,1,0.00
2013-5-3,89.1,71.0,58.6,46.6,38.9,29.3,55,33,19,29.97,29.69,11,0,11,0.00
2013-5-4,92.7,63.7,54.3,49.3,45.8,41.3,82,57,19,29.69,29.46,21,4,28,0.00
2013-5-5,65.8,59.5,54.5,48.8,46.0,43.7,75,61,51,29.71,29.51,17,4,22,0.00
2013-5-6,77.4,62.5,56.1,50.9,47.4,41.9,75,59,31,29.86,29.71,17,3,17,0.00
2013-5-7,73.2,61.5,55.2,52.7,49.6,48.4,80,66,43,29.94,29.84,14,3,14,0.00
2013-5-8,68.9,56.5,53.2,49.6,47.6,45.5,83,73,46,30.03,29.93,17,2,17,0.00
2013-5-9,77.4,57.4,52.3,47.9,46.4,44.5,80,69,32,30.05,30.00,8,1,9,0.00
2013-5-10,77.7,58.8,52.2,52.2,47.3,45.2,81,68,33,30.08,30.00,3,1,3,0.00
2013-5-11,78.4,60.3,52.0,51.5,47.9,46.5,85,67,35,30.04,29.94,2,0,2,0.00
2013-5-12,85.1,63.6,54.0,51.7,49.3,46.7,84,62,31,30.03,29.92,1,0,1,0.00
2013-5-13,83.8,65.3,53.2,51.7,49.2,45.1,82,59,30,29.98,29.84,2,0,2,0.00
2013-5-14,79.5,62.6,53.6,49.0,45.5,41.6,80,55,29,29.88,29.81,5,0,6,0.00
2013-5-15,82.8,62.3,53.1,46.9,43.8,40.9,71,53,24,29.93,29.87,6,1,10,0.00
2013-5-16,79.3,60.9,55.6,52.6,47.4,43.1,76,62,34,29.92,29.85,13,2,13,0.00
2013-5-17,81.9,60.0,52.2,47.4,43.4,40.5,73,56,26,29.96,29.85,16,2,18,0.00
2013-5-18,79.7,64.4,52.0,49.6,44.6,39.3,77,52,27,30.02,29.95,7,1,7,0.00
2013-5-19,90.5,70.1,56.7,49.2,32.2,-99.9,64,39,19,30.01,29.87,9,1,13,0.00
2013-5-20,96.3,67.7,55.8,51.5,22.2,-99.9,72,50,19,29.90,29.81,11,1,15,0.00
2013-5-21,89.1,64.3,55.4,47.5,33.3,-99.9,70,46,19,29.89,29.80,7,1,8,0.00
2013-5-22,83.3,61.7,50.5,38.2,9.4,-99.9,52,33,19,29.91,29.78,14,-2,14,0.00
2013-5-23,76.6,60.5,50.7,40.6,36.7,33.2,57,43,21,29.89,29.81,12,1,12,0.00
2013-5-24,81.7,61.2,52.3,45.9,36.0,-99.9,72,48,19,29.90,29.82,15,2,15,0.00
2013-5-25,79.0,60.7,52.0,45.3,42.2,37.8,72,53,25,29.93,29.84,11,1,11,0.00
2013-5-26,79.9,60.2,52.5,51.7,47.6,44.5,85,65,31,30.02,29.92,21,3,21,0.00
2013-5-27,67.1,57.7,53.8,55.3,50.0,45.7,96,76,53,30.01,29.88,11,2,14,0.04
2013-5-28,80.4,63.2,54.9,60.1,52.4,46.6,96,71,41,29.89,29.81,7,1,8,0.04
2013-5-29,81.3,64.1,56.7,52.4,47.6,43.6,75,57,31,29.86,29.79,12,1,12,0.00
2013-5-30,83.5,64.5,53.6,48.4,44.7,40.7,77,52,23,29.88,29.82,8,1,8,0.00
2013-5-31,90.9,69.7,54.9,49.5,31.4,-99.9,72,45,19,29.91,29.79,7,0,8,0.00
2013-6-1,95.2,70.4,56.7,49.2,28.8,-99.9,69,45,19,29.83,29.66,7,-3,7,0.49
2013-6-2,86.4,64.0,53.4,48.9,42.5,-99.9,81,56,19,29.68,29.56,13,2,13,0.00
2013-6-3,72.1,57.9,52.7,49.8,47.6,44.4,85,70,38,29.76,29.60,20,6,28,0.00
2013-6-4,66.2,57.2,54.9,50.3,48.5,47.4,81,73,54,29.86,29.74,19,4,19,0.00
2013-6-5,73.8,57.5,52.9,50.7,47.5,45.7,84,71,38,29.90,29.81,22,3,22,0.00
2013-6-6,54.9,53.0,52.5,50.0,48.7,47.8,87,85,82,29.85,29.82,8,2,8,0.00
2013-6-9,62.8,58.7,55.9,54.4,52.1,50.1,91,79,66,29.78,29.73,16,2,16,0.00
2013-6-10,68.9,58.1,55.0,53.2,50.7,48.1,91,77,50,29.85,29.69,17,0,17,0.02
2013-6-11,80.1,63.1,55.2,52.4,49.2,43.5,82,63,32,29.89,29.78,13,1,13,0.00
2013-6-12,87.4,66.6,54.1,49.0,42.0,-99.9,75,49,19,29.88,29.79,9,1,9,0.00
2013-6-13,85.3,67.8,54.7,47.1,40.7,-99.9,70,45,19,29.98,29.88,12,1,12,0.00
2013-6-14,95.4,66.7,53.8,50.9,30.5,-99.9,74,51,19,29.89,29.71,15,1,15,0.02
2013-6-15,75.7,57.2,51.3,49.4,46.7,42.9,86,70,32,29.89,29.72,21,3,21,0.00
2013-6-16,85.6,65.8,52.7,49.7,46.9,43.5,82,55,24,29.97,29.87,12,1,12,0.00
2013-6-17,90.5,65.8,55.9,50.6,48.0,44.4,80,56,22,29.98,29.91,11,2,11,0.00
2013-6-18,86.7,63.5,55.0,50.9,46.4,40.7,79,57,22,29.92,29.86,14,2,14,0.00
2013-6-19,88.2,67.2,55.9,45.9,36.1,-99.9,63,42,19,29.95,29.88,12,1,12,0.00
2013-6-20,89.8,68.2,56.8,48.3,27.8,-99.9,64,43,19,29.91,29.83,13,1,13,0.00
2013-6-21,89.2,68.2,55.8,49.9,33.6,-99.9,71,47,19,29.87,29.79,12,1,12,0.00
2013-6-22,90.5,68.8,56.5,49.1,34.5,-99.9,71,47,19,29.83,29.73,8,1,8,0.00
2013-6-23,63.1,58.8,56.3,56.5,53.0,47.6,96,81,58,29.78,29.71,17,2,17,0.06
2013-6-24,59.7,57.3,55.0,56.9,53.9,52.2,96,89,80,29.80,29.69,13,2,13,0.06
2013-6-25,65.8,61.5,58.5,61.1,58.2,55.4,96,89,80,29.87,29.77,21,5,21,0.57
2013-6-26,88.0,69.6,59.7,66.2,58.5,54.0,96,71,35,29.95,29.86,11,1,11,0.04
2013-6-27,92.1,73.1,59.2,60.3,55.3,53.0,85,57,28,29.97,29.89,6,0,6,0.00
2013-6-28,98.1,73.2,61.2,58.0,53.7,50.0,79,54,21,29.92,29.78,12,0,12,0.00
2013-6-29,98.1,73.7,61.7,55.3,44.6,-99.9,73,51,19,29.81,29.69,7,0,7,0.00
2013-6-30,91.6,71.3,61.0,55.2,52.1,47.9,74,54,23,29.74,29.65,10,1,10,0.00
2013-7-1,95.2,69.4,59.5,54.6,49.6,-99.9,75,56,19,29.74,29.69,13,1,13,0.00
2013-7-2,86.9,66.2,58.5,54.7,52.0,49.9,84,63,29,29.82,29.71,22,2,22,0.00
2013-7-3,91.0,68.9,58.1,57.4,53.3,50.7,86,62,27,29.82,29.65,15,1,15,0.00
2013-7-4,90.3,70.8,63.3,55.7,51.8,48.0,71,53,26,29.68,29.57,21,1,21,0.00
2013-7-5,81.5,63.3,54.9,51.2,48.2,43.6,80,60,28,29.66,29.60,18,2,18,0.00
2013-7-6,66.6,56.7,54.0,51.0,49.2,47.8,85,77,54,29.72,29.63,21,5,21,0.00
2013-7-7,75.2,59.7,54.5,51.7,50.0,47.7,85,72,39,29.76,29.68,16,2,16,0.00
2013-7-8,75.6,59.8,54.7,51.7,50.4,46.6,86,73,38,29.87,29.75,16,2,16,0.00
2013-7-9,83.8,64.4,54.0,55.5,50.5,48.4,87,64,33,29.92,29.81,8,1,8,0.00
2013-7-10,82.6,60.9,54.1,53.7,49.7,45.9,86,70,30,29.88,29.81,16,2,16,0.00
2013-7-11,68.7,56.7,53.4,52.8,49.7,47.9,88,78,52,29.84,29.77,16,-2,16,0.00
2013-7-12,69.8,57.7,53.8,51.4,49.4,48.0,85,75,49,29.85,29.76,21,3,21,0.00
2013-7-13,79.7,60.7,53.8,51.8,49.1,46.0,87,68,31,29.86,29.78,14,2,14,0.00
2013-7-14,77.2,58.9,53.4,52.3,49.3,46.0,87,73,35,29.89,29.79,15,3,15,0.00
2013-7-15,66.9,56.9,52.5,51.8,50.0,48.4,89,79,55,29.82,29.73,16,2,16,0.00
2013-7-16,61.7,57.6,54.3,54.3,51.8,49.7,89,81,70,29.92,29.76,11,1,11,0.00
2013-7-17,77.4,61.3,55.0,54.5,51.4,49.4,85,71,40,29.99,29.91,15,-2,15,0.00
2013-7-18,81.7,60.5,54.3,54.4,50.7,47.3,89,73,31,29.95,29.84,15,2,15,0.00
2013-7-19,78.6,59.9,54.0,55.5,50.6,47.9,90,74,35,29.84,29.71,15,2,15,0.00
2013-7-20,73.0,57.5,53.1,52.6,50.0,47.7,91,78,42,29.75,29.62,22,3,22,0.00
2013-7-21,65.8,56.7,53.8,51.9,50.2,48.3,89,80,56,29.78,29.67,24,2,24,0.00
2013-7-22,73.4,61.0,54.3,58.7,53.3,50.8,96,77,49,29.86,29.76,18,2,18,0.00
2013-7-23,74.7,63.3,56.8,56.5,52.8,50.8,85,70,48,29.90,29.82,11,1,11,0.00
2013-7-24,84.6,64.5,55.6,56.2,52.2,49.8,89,67,32,29.89,29.79,12,2,12,0.00
2013-7-25,77.0,60.3,54.0,53.6,50.3,47.1,88,72,36,29.92,29.82,16,2,16,0.00
2013-7-26,68.7,59.0,54.7,53.6,51.7,50.2,88,78,56,29.99,29.89,13,-2,13,0.00
2013-7-27,66.6,58.1,54.5,54.6,51.9,50.4,90,80,61,29.92,29.77,16,2,16,0.00
2013-7-28,68.9,57.8,54.7,53.4,50.8,48.4,91,79,49,29.78,29.71,22,4,22,0.00
2013-7-29,62.2,57.4,54.9,52.2,50.8,50.0,86,79,66,29.91,29.73,23,5,23,0.00
2013-7-30,66.4,57.8,53.8,54.0,50.8,48.8,88,78,58,30.00,29.91,24,2,24,0.00
2013-7-31,68.2,59.6,53.2,52.3,50.5,47.9,91,73,53,29.99,29.88,18,3,18,0.00
2013-8-1,83.1,63.6,54.7,53.0,49.4,45.6,82,62,29,29.95,29.84,17,1,17,0.00
2013-8-2,81.1,61.3,54.0,52.5,49.4,46.2,85,67,31,29.87,29.77,14,2,14,0.00
2013-8-3,68.9,56.7,53.1,52.5,49.6,-99.9,90,79,51,29.87,29.80,24,4,24,0.00
2013-8-4,63.1,56.5,53.4,52.1,50.2,47.7,90,80,60,29.90,29.84,22,2,22,0.00
2013-8-5,66.0,57.4,53.6,51.9,50.2,47.3,87,78,56,29.92,29.82,16,2,16,0.00
2013-8-6,72.7,59.4,54.1,54.0,51.0,47.4,86,75,42,29.93,29.86,16,2,16,0.00
2013-8-7,64.6,59.9,56.7,55.4,53.3,51.5,88,79,66,30.00,29.92,11,1,11,0.02
2013-8-8,79.0,61.9,55.4,59.2,52.0,-99.9,90,73,37,29.93,29.82,16,2,16,0.02
2013-8-9,75.2,60.8,54.9,53.8,51.4,48.5,87,73,41,29.89,29.81,15,3,15,0.00
2013-8-10,77.4,62.7,57.9,54.6,52.3,48.6,85,70,38,29.94,29.88,17,1,17,0.00
2013-8-11,74.7,60.2,55.6,53.4,51.9,50.1,89,76,43,29.92,29.83,22,2,22,0.00
2013-8-12,71.4,59.0,55.2,57.4,52.1,49.6,91,79,52,29.89,29.83,12,1,12,0.00
2013-8-13,80.6,65.5,55.2,57.0,51.8,48.0,90,65,36,29.88,29.79,19,1,19,0.00
2013-8-14,83.8,66.8,56.7,55.7,51.8,48.3,79,60,30,29.87,29.79,11,1,11,0.00
2013-8-15,85.6,68.0,60.4,60.0,56.6,53.8,85,69,37,29.86,29.79,18,1,18,0.00
2013-8-16,85.1,69.0,59.7,59.0,54.2,49.3,85,62,34,29.88,29.82,11,1,11,0.00
2013-8-17,81.3,68.4,59.4,56.6,53.0,50.0,78,60,36,29.88,29.74,10,1,10,0.00
2013-8-27,79.5,67.4,57.9,57.8,52.4,49.5,83,60,36,29.79,29.71,9,1,14,0.00
2013-8-28,82.6,67.4,59.9,58.8,55.8,52.0,82,68,40,29.83,29.74,10,1,15,0.00
2013-8-29,82.0,69.1,61.0,60.5,57.4,55.8,86,68,43,29.95,29.82,9,1,14,0.00
2013-8-30,85.3,72.9,61.7,60.4,56.0,51.2,84,58,38,29.93,29.79,5,0,8,0.00
2013-8-31,82.0,68.7,59.9,60.0,53.3,50.6,80,59,35,29.86,29.77,10,2,15,0.00
2013-9-1,80.6,67.4,59.4,57.1,53.5,50.6,77,62,37,29.84,29.76,8,1,14,0.00
2013-9-2,84.4,69.9,63.1,61.5,56.9,54.2,82,65,39,29.85,29.76,12,2,13,0.00
2013-9-3,84.9,68.7,60.6,59.6,54.2,50.7,78,62,33,29.89,29.81,15,2,15,0.00
2013-9-4,82.9,69.6,59.9,60.5,53.9,52.3,80,60,37,29.92,29.81,10,1,10,0.00
2013-9-5,83.7,71.1,60.4,60.2,52.1,49.0,79,54,32,29.89,29.82,7,1,8,0.00
2013-9-6,88.7,74.7,60.4,59.2,43.6,-99.9,76,45,19,29.87,29.71,8,0,8,0.00
2013-9-7,90.9,74.9,60.4,53.1,46.4,-99.9,66,40,19,29.76,29.68,14,1,14,0.00
2013-9-8,79.3,67.2,58.6,59.1,51.8,48.9,80,59,40,29.77,29.64,8,1,8,0.00
2013-9-9,79.3,66.1,57.6,56.4,51.9,49.5,83,62,37,29.70,29.59,12,1,12,0.00
2013-9-10,65.1,59.9,58.8,58.7,56.0,54.4,89,87,73,29.72,29.62,19,3,19,0.00
2013-9-11,69.4,64.1,61.7,56.5,55.0,53.3,83,73,58,29.88,29.78,3,0,3,0.00
2013-9-12,73.0,64.5,59.7,60.5,56.9,54.1,90,77,57,29.86,29.76,2,0,2,0.02
2013-9-13,74.3,64.6,57.9,55.3,53.3,51.0,86,68,48,29.80,29.64,1,0,1,0.00
2013-9-14,74.5,63.3,56.8,54.7,52.3,50.2,83,69,48,29.70,29.62,2,0,2,0.00
2013-9-15,77.5,66.1,57.0,56.7,52.4,50.1,80,63,40,29.74,29.66,2,0,2,0.00
2013-9-16,75.7,67.5,58.5,56.8,53.7,50.6,85,63,44,29.78,29.67,2,0,2,0.00
2013-9-17,82.2,69.0,59.2,55.2,49.6,46.0,75,52,31,29.77,29.70,6,0,12,0.02
2013-9-18,74.7,31.9,59.4,51.3,-27.1,-99.9,73,32,36,29.80,29.69,1,-520,1,0.00
2013-9-21,32.0,32.0,32.0,58.6,56.7,52.4,91,65,50,29.78,29.69,12,5,18,0.37
2013-9-22,32.0,32.0,32.0,60.4,52.2,50.4,88,63,50,29.88,29.78,2,1,2,0.00
2013-9-23,32.0,32.0,32.0,52.3,44.8,32.0,69,52,41,29.91,29.81,7,1,12,0.00
2013-9-24,32.0,32.0,32.0,52.2,40.0,32.0,79,56,37,29.89,29.78,9,1,12,0.00
2013-9-25,32.0,32.0,32.0,43.0,39.9,35.7,54,40,22,29.82,29.71,11,1,12,0.00
2013-9-26,32.0,32.0,32.0,42.3,37.4,32.8,47,36,19,29.87,29.72,7,1,11,0.00
2013-9-27,82.8,49.2,32.0,45.7,37.6,30.1,55,35,19,29.99,29.87,8,0,12,0.00
2013-9-28,80.4,66.5,56.8,54.4,48.3,42.9,76,54,27,29.97,29.89,8,0,8,0.00
2013-9-29,73.6,64.4,57.6,61.0,57.0,51.8,89,77,64,30.00,29.94,12,1,12,0.00
2013-9-30,64.8,61.9,57.9,62.0,59.0,51.4,94,90,79,29.96,29.86,12,2,12,0.04
2013-10-1,72.0,63.1,53.2,54.7,50.8,47.6,85,65,49,29.91,29.80,9,1,9,0.00
2013-10-2,73.8,63.5,55.8,55.6,50.6,43.8,82,64,46,29.90,29.82,9,0,9,0.00
2013-10-3,74.3,65.8,55.6,46.0,40.7,33.1,60,42,26,29.97,29.84,19,3,20,0.00
2013-10-4,80.1,70.9,63.7,38.9,32.3,-99.9,33,26,19,29.97,29.85,22,7,28,0.00
2013-10-5,84.7,74.2,64.2,39.1,-5.4,-99.9,28,22,15,30.08,29.97,10,2,10,0.00
2013-10-6,84.7,71.2,60.4,42.5,36.0,30.1,35,28,20,30.01,29.88,9,1,10,0.00
2013-10-7,79.2,67.1,58.8,48.6,42.0,34.1,63,41,27,29.89,29.76,8,0,8,0.00
2013-10-8,72.1,60.5,54.3,52.8,48.0,44.3,79,64,46,29.81,29.60,16,1,16,0.00
2013-10-9,67.8,60.2,51.4,49.2,45.8,41.5,80,61,42,29.65,29.52,9,1,9,0.00
2013-10-10,62.8,55.7,51.4,51.7,47.9,45.3,85,75,64,29.90,29.64,13,2,15,0.00
2013-10-11,62.8,54.6,50.2,50.9,48.0,45.4,88,79,63,29.98,29.87,8,1,10,0.00
2013-10-12,61.5,54.9,49.6,51.9,48.1,45.7,90,78,68,29.90,29.79,9,1,9,0.00
2013-10-13,71.2,60.1,52.3,54.5,48.3,42.9,86,67,42,29.95,29.81,7,0,9,0.00
2013-10-14,78.4,63.7,53.4,52.2,46.9,41.3,82,57,31,30.01,29.88,7,0,7,0.00
2013-10-15,80.4,67.3,55.8,45.6,41.1,37.2,60,40,23,29.93,29.84,9,1,9,0.00
2013-10-16,82.8,68.2,58.1,45.5,39.8,35.9,58,37,22,29.97,29.88,6,0,6,0.00
2013-10-17,79.9,65.9,57.0,48.5,40.1,34.2,59,40,23,29.97,29.85,4,0,4,0.00
2013-10-18,70.9,59.8,52.2,52.8,48.3,44.7,80,66,50,29.95,29.87,5,0,6,0.00
2013-10-19,75.0,60.1,51.1,53.6,49.5,46.1,85,69,46,29.97,29.88,5,0,5,0.00
2013-10-20,67.6,56.2,49.5,54.7,48.3,44.8,87,75,59,29.91,29.80,6,0,7,0.00
2013-10-21,63.7,54.2,49.6,52.3,48.0,45.4,88,80,64,29.91,29.80,8,1,8,0.00
2013-10-22,64.6,53.7,49.6,54.5,48.4,45.6,90,83,65,29.92,29.81,6,0,6,0.00
2013-10-23,62.8,52.4,49.1,53.1,47.9,45.4,90,85,68,29.88,29.79,10,1,11,0.00
2013-10-24,62.2,52.9,49.1,52.1,47.9,46.1,91,84,67,30.00,29.87,10,1,10,0.00
2013-10-25,66.7,57.0,48.9,54.4,49.8,45.4,90,78,63,30.06,29.97,5,0,8,0.00
2013-10-26,72.9,58.7,50.5,56.4,50.4,46.9,89,75,52,30.04,29.90,4,0,4,0.00
2013-10-27,59.7,53.1,48.7,51.6,47.8,45.2,91,83,70,29.92,29.56,15,2,16,0.00
2013-10-28,63.7,55.2,49.6,50.0,46.9,43.1,84,74,58,29.73,29.56,10,1,10,0.00
2013-10-29,60.6,55.5,50.9,50.9,48.0,45.2,84,76,64,29.94,29.73,7,1,8,0.00
2013-10-30,65.8,55.4,48.9,52.5,47.4,44.5,90,75,57,30.05,29.94,6,0,6,0.00
2013-10-31,71.4,58.1,50.2,52.8,47.2,44.7,86,69,46,30.07,29.95,5,0,6,0.00
2013-11-1,73.9,62.4,52.9,52.7,47.8,44.8,76,60,44,30.02,29.89,8,1,8,0.00
2013-11-2,67.5,59.2,52.0,53.5,48.9,44.0,84,69,57,29.91,29.79,5,0,5,0.00
2013-11-3,66.4,57.0,50.0,47.0,40.5,36.4,72,55,37,29.95,29.81,6,0,7,0.00
2013-11-4,68.7,58.3,48.9,44.0,38.2,34.1,71,49,31,29.95,29.81,8,0,10,0.00
2013-11-5,71.4,61.2,54.1,46.8,38.8,33.6,61,44,30,30.10,29.94,6,0,7,0.00
2013-11-6,70.5,62.2,55.2,44.7,40.6,37.3,57,46,37,30.15,30.04,11,1,12,0.00
2013-11-7,72.7,62.9,55.9,48.2,43.1,37.5,74,49,35,30.05,29.95,7,0,7,0.00
2013-11-8,70.2,58.3,51.4,54.7,49.1,45.5,86,72,56,29.97,29.84,7,0,7,0.00
2013-11-9,71.2,56.5,50.4,52.0,48.0,44.7,87,74,50,29.93,29.86,13,1,13,0.00
2013-11-10,63.1,55.6,52.2,53.0,49.2,47.3,86,79,65,30.01,29.91,13,2,13,0.00
2013-11-11,61.9,56.4,51.4,53.0,49.7,47.2,88,79,70,30.06,29.96,5,0,6,0.00
2013-11-12,66.0,60.0,55.9,52.9,50.2,47.7,78,70,60,30.16,30.04,6,0,6,0.00
2013-11-13,71.2,59.3,54.0,57.3,51.9,49.2,88,77,57,30.14,29.98,2,0,4,0.00
2013-11-14,61.3,55.9,51.6,54.1,50.0,38.8,90,81,46,30.00,29.75,6,0,6,0.00
2013-11-15,84.0,56.5,50.7,50.3,44.0,40.2,83,64,29,29.77,29.61,9,1,10,0.00
2013-11-16,65.1,55.5,48.4,50.9,47.0,42.4,83,74,55,29.81,29.66,9,1,9,0.00
2013-11-17,61.5,53.5,48.9,50.5,46.9,44.7,90,79,62,29.97,29.81,17,1,17,0.00
2013-11-18,58.1,53.4,49.6,49.8,47.7,45.2,87,81,73,30.04,29.97,7,1,7,0.00
2013-11-19,57.2,55.3,52.5,55.6,51.7,47.8,95,88,79,29.99,29.82,20,3,20,0.73
2013-11-20,57.9,55.6,51.6,56.2,54.1,49.6,95,95,93,29.82,29.73,11,2,14,0.90
2013-11-21,62.8,56.0,51.1,50.4,40.5,27.1,95,61,32,29.87,29.78,30,6,30,0.00
2013-11-22,69.4,62.2,55.9,29.2,-17.8,-99.9,35,24,17,29.91,29.79,27,10,30,0.00
2013-11-23,65.8,57.7,52.3,49.7,35.9,26.6,86,48,25,29.98,29.85,16,2,16,0.00
2013-11-24,61.0,54.4,48.4,48.7,45.3,41.3,87,72,57,30.13,29.98,6,0,6,0.00
2013-11-25,63.9,55.0,47.1,48.4,44.2,40.9,80,68,56,30.21,30.13,8,0,9,0.00
2013-11-26,62.4,54.9,50.2,44.3,42.6,41.0,74,64,50,30.15,29.92,8,1,9,0.00
2013-11-27,65.1,56.3,50.2,47.0,44.3,41.7,73,64,52,29.92,29.74,9,0,9,0.00
2013-11-28,69.6,58.6,53.8,47.7,44.0,41.4,68,59,44,29.96,29.75,6,0,6,0.00
2013-11-29,67.3,56.9,51.4,49.0,47.0,43.3,83,70,48,30.10,29.95,6,0,6,0.00
2013-11-30,66.0,55.1,49.3,51.8,47.5,45.4,89,76,54,30.16,30.07,5,0,5,0.00
2013-12-1,65.7,56.2,50.4,51.3,47.3,45.0,84,73,56,30.23,30.10,5,0,6,0.00
2013-12-2,64.2,55.0,48.4,53.5,49.1,45.0,90,81,67,30.11,29.84,11,0,11,0.00
2013-12-3,57.4,51.5,45.7,52.3,37.7,28.6,86,60,48,29.83,29.74,10,1,10,0.00
2013-12-4,52.9,46.5,41.5,32.5,26.6,22.5,57,46,33,29.96,29.82,10,1,10,0.00
2013-12-5,50.5,44.3,38.8,32.5,26.8,19.5,66,51,30,30.04,29.96,5,0,5,0.00
2013-12-6,50.7,45.7,39.6,47.7,37.9,30.2,91,75,57,30.08,29.79,17,2,17,0.25
2013-12-7,52.3,44.7,38.8,45.4,32.1,27.0,91,63,42,30.14,29.81,12,1,13,0.00
2013-12-8,47.7,41.6,36.1,31.1,26.1,22.1,77,55,41,30.20,30.11,11,3,13,0.00
2013-12-9,50.2,42.8,36.5,29.7,24.2,19.6,66,49,30,30.30,30.19,13,3,14,0.00
2013-12-10,53.2,45.1,37.9,33.2,29.5,26.8,72,55,39,30.29,30.09,15,2,15,0.00
2013-12-11,56.7,48.0,41.0,36.4,32.4,28.4,71,55,40,30.13,30.05,14,2,14,0.00
2013-12-12,59.7,50.4,43.7,38.0,34.9,32.1,70,56,43,30.15,30.05,7,0,7,0.00
2013-12-13,57.7,48.5,43.7,45.3,39.7,35.2,88,73,49,30.22,30.11,2,0,2,0.00
2013-12-14,61.3,51.7,45.0,42.4,39.2,35.9,83,63,43,30.28,30.19,13,1,13,0.00
2013-12-15,62.4,53.3,46.8,41.9,38.2,36.0,67,57,44,30.25,30.11,8,1,8,0.00
2013-12-16,69.4,57.0,49.8,42.8,38.0,34.9,63,50,35,30.12,30.00,8,1,8,0.00
2013-12-17,64.8,57.0,51.4,43.6,39.0,35.5,60,51,44,30.06,29.91,12,1,12,0.00
2013-12-18,59.7,52.8,48.9,47.2,42.3,36.3,85,68,50,29.92,29.65,16,1,16,0.00
2013-12-19,61.7,52.6,46.6,42.7,35.1,22.2,75,53,34,29.83,29.62,9,1,9,0.00
2013-12-20,61.5,51.8,46.0,41.9,30.8,17.2,67,46,29,29.91,29.82,3,0,6,0.00
2013-12-21,61.0,52.7,47.1,49.6,45.1,37.4,85,76,64,29.97,29.86,5,0,5,0.00
2013-12-22,64.9,55.2,47.3,46.1,41.7,38.3,86,62,43,30.17,29.97,9,0,9,0.00
2013-12-23,63.1,54.9,48.9,42.7,39.7,37.4,66,57,46,30.28,30.17,12,1,12,0.00
2013-12-24,63.7,55.7,48.7,47.4,41.8,38.9,70,60,51,30.22,30.08,4,0,4,0.00
2013-12-25,65.1,55.8,47.5,44.3,40.9,38.3,73,58,45,30.18,30.08,15,2,15,0.00
2013-12-26,67.1,57.4,49.8,43.7,38.6,33.1,65,51,38,30.14,30.05,6,1,7,0.00
2013-12-27,60.6,54.6,50.2,40.9,38.5,33.4,64,55,44,30.12,30.01,10,1,10,0.00
2013-12-28,63.0,53.1,45.7,45.0,37.7,33.0,69,57,34,30.04,29.92,3,0,4,0.00
2013-12-29,64.8,56.4,50.9,39.6,30.7,25.3,64,39,24,30.06,29.97,14,2,14,0.00
2013-12-30,62.1,53.3,48.6,44.9,39.7,34.5,82,61,46,30.14,30.06,8,1,10,0.00
2013-12-31,62.4,51.6,46.0,43.9,39.5,34.3,83,65,43,30.16,30.05,8,0,8,0.00
2014-1-1,63.0,52.6,45.0,45.3,39.7,35.6,78,62,47,30.10,30.01,5,0,6,0.00
2014-1-2,66.7,57.2,50.5,40.6,37.2,34.6,56,48,37,30.06,29.93,7,1,7,0.00